Time;durP1;ratioP1;P1;durP2;ratioP2;P2;SDS_P1;SDS_P2;PMS_P1;PMS_P2;Temp;Humidity;BMP_temperature;BMP_pressure;BME280_temperature;BME280_humidity;BME280_pressure;Samples;Min_cycle;Max_cycle;Signal;HPM_P1;HPM_P2
2021/08/30 03:29:30;;;;;;;;;;;12.70;99.90;;;;;;6203438;23;19931;-92
2021/08/30 05:03:28;;;;;;;;;;;12.90;99.90;;;;;;6275666;22;20341;-90
2021/08/30 05:06:35;;;;;;;;;;;12.90;99.90;;;;;;6300510;22;19930;-90
2021/08/30 05:09:33;;;;;;;;;;;12.90;99.90;;;;;;6341610;22;19919;-90
2021/08/30 05:16:25;;;;;;;;;;;;;;;;;;;;;
2021/08/30 05:19:34;;;;;;;;;;;13.00;99.90;;;;;;6337279;22;19934;-90
2021/08/30 05:22:39;;;;;;;;;;;13.00;99.90;;;;;;6339575;22;19925;-92
2021/08/30 05:25:34;;;;;;;;;;;12.90;99.90;;;;;;6339595;22;20229;-92
2021/08/30 05:28:42;;;;;;;;;;;13.00;99.90;;;;;;6339811;22;20020;-92
2021/08/30 05:31:49;;;;;;;;;;;;;;;;;;;;;
2021/08/30 05:34:43;;;;;;;;;;;13.00;99.90;;;;;;6320564;22;19926;-91
2021/08/30 05:37:38;;;;;;;;;;;13.00;99.90;;;;;;6319127;22;19929;-91
2021/08/30 05:40:54;;;;;;;;;;;13.00;99.90;;;;;;6322060;22;19991;-91
2021/08/30 05:43:58;;;;;;;;;;;13.00;99.90;;;;;;6347162;22;19929;-91
2021/08/30 05:47:16;;;;;;;;;;;;;;;;;;;;;
2021/08/30 05:50:29;;;;;;;;;;;13.00;99.90;;;;;;6343950;22;19919;-91
2021/08/30 05:53:55;;;;;;;;;;;13.00;99.90;;;;;;6348280;22;19929;-94
2021/08/30 05:56:48;;;;;;;;;;;13.00;99.90;;;;;;6327384;22;19918;-90
2021/08/30 06:00:50;;;;;;;;;;;13.00;99.90;;;;;;6284375;22;19919;-92
2021/08/30 06:04:02;;;;;;;;;;;13.00;99.90;;;;;;6285232;22;20226;-94
2021/08/30 06:07:03;;;;;;;;;;;13.00;99.90;;;;;;6175673;23;20093;-90
2021/08/30 06:10:15;;;;;;;;;;;13.10;99.90;;;;;;6090226;23;19932;-92
2021/08/30 06:13:47;;;;;;;;;;;13.10;99.90;;;;;;6073066;23;20218;-91
2021/08/30 06:16:44;;;;;;;;;;;13.20;99.90;;;;;;6072718;23;19940;-89
2021/08/30 06:20:11;;;;;;;;;;;;;;;;;;;;;
2021/08/30 06:23:31;;;;;;;;;;;;;;;;;;;;;
2021/08/30 06:27:10;;;;;;;;;;;13.30;99.90;;;;;;5944222;24;19987;-91
2021/08/30 06:45:14;;;;;;;;;;;13.40;99.90;;;;;;6328508;22;19919;-92
2021/08/30 06:48:11;;;;;;;;;;;13.50;99.90;;;;;;6328557;22;20011;-91
2021/08/30 06:51:53;;;;;;;;;;;;;;;;;;;;;
2021/08/30 06:55:12;;;;;;;;;;;13.70;99.90;;;;;;6204791;23;19921;-91
2021/08/30 06:58:14;;;;;;;;;;;13.80;99.90;;;;;;6143355;23;19909;-91
2021/08/30 07:01:20;;;;;;;;;;;13.90;99.90;;;;;;6101779;23;19984;-93
2021/08/30 07:08:25;;;;;;;;;;;;;;;;;;;;;
2021/08/30 07:12:00;;;;;;;;;;;;;;;;;;;;;
2021/08/30 07:14:59;;;;;;;;;;;14.20;99.90;;;;;;6088001;23;19932;-89
2021/08/30 07:17:55;;;;;;;;;;;14.30;99.90;;;;;;6099410;23;20279;-90
2021/08/30 07:21:03;;;;;;;;;;;14.40;99.90;;;;;;6098803;23;20005;-89
2021/08/30 07:24:10;;;;;;;;;;;14.50;99.90;;;;;;6099608;23;20032;-90
2021/08/30 07:27:13;;;;;;;;;;;14.50;99.90;;;;;;6096223;23;20073;-91
2021/08/30 07:30:39;;;;;;;;;;;14.60;99.90;;;;;;6099413;23;20295;-92
2021/08/30 07:33:55;;;;;;;;;;;14.90;99.90;;;;;;6096816;23;20022;-91
2021/08/30 07:36:53;;;;;;;;;;;15.10;99.90;;;;;;6186605;23;19920;-90
2021/08/30 07:39:43;;;;;;;;;;;15.30;99.90;;;;;;6185800;23;19928;-90
2021/08/30 07:42:38;;;;;;;;;;;15.60;99.90;;;;;;6183988;23;19932;-91
2021/08/30 07:45:25;;;;;;;;;;;15.70;99.90;;;;;;6277598;22;19923;-89
2021/08/30 07:48:54;;;;;;;;;;;15.60;99.90;;;;;;6307362;22;19923;-91
2021/08/30 07:51:40;;;;;;;;;;;15.50;99.90;;;;;;6306480;22;20088;-90
2021/08/30 07:54:28;;;;;;;;;;;15.20;99.90;;;;;;6307543;22;19919;-89
2021/08/30 07:57:19;;;;;;;;;;;15.10;99.90;;;;;;6306085;22;19919;-91
2021/08/30 08:00:16;;;;;;;;;;;15.00;99.90;;;;;;6308900;22;20046;-90
2021/08/30 08:03:36;;;;;;;;;;;14.90;99.90;;;;;;6286641;22;20004;-91
2021/08/30 08:06:34;;;;;;;;;;;14.80;99.90;;;;;;6306874;22;20257;-91
2021/08/30 08:09:26;;;;;;;;;;;14.80;99.90;;;;;;6287218;22;19929;-91
2021/08/30 08:19:58;;;;;;;;;;;14.50;99.90;;;;;;6174166;23;19966;-94
2021/08/30 08:23:29;;;;;;;;;;;;;;;;;;;;;
2021/08/30 08:26:30;;;;;;;;;;;14.40;99.90;;;;;;6041819;23;20000;-93
2021/08/30 08:29:40;;;;;;;;;;;14.50;99.90;;;;;;6033052;23;19922;-91
2021/08/30 08:32:48;;;;;;;;;;;14.50;99.90;;;;;;6063460;23;20272;-92
2021/08/30 08:35:40;;;;;;;;;;;14.40;99.90;;;;;;6138392;23;20280;-91
2021/08/30 08:38:40;;;;;;;;;;;14.40;99.90;;;;;;6158645;23;19909;-91
2021/08/30 08:42:14;;;;;;;;;;;14.40;99.90;;;;;;6136570;23;19965;-90
2021/08/30 08:45:50;;;;;;;;;;;14.50;99.90;;;;;;6123892;23;19921;-91
2021/08/30 08:49:00;;;;;;;;;;;14.50;99.90;;;;;;6125001;23;20000;-90
2021/08/30 08:55:34;;;;;;;;;;;;;;;;;;;;;
2021/08/30 08:58:36;;;;;;;;;;;15.00;99.90;;;;;;6278422;22;19920;-90
2021/08/30 09:01:37;;;;;;;;;;;;;;;;;;;;;
2021/08/30 09:05:03;;;;;;;;;;;;;;;;;;;;;
2021/08/30 09:08:28;;;;;;;;;;;15.20;99.90;;;;;;6282473;22;19919;-90
2021/08/30 09:12:05;;;;;;;;;;;15.10;99.90;;;;;;6261568;22;19930;-89
2021/08/30 09:15:00;;;;;;;;;;;15.10;99.90;;;;;;6265530;22;19942;-92
2021/08/30 09:17:59;;;;;;;;;;;15.00;99.90;;;;;;6280811;22;19946;-90
2021/08/30 09:21:26;;;;;;;;;;;15.00;99.90;;;;;;6281464;22;19998;-92
2021/08/30 09:24:36;;;;;;;;;;;15.10;99.90;;;;;;6282350;22;19934;-92
2021/08/30 09:27:37;;;;;;;;;;;15.10;99.90;;;;;;6257513;22;19935;-90
2021/08/30 09:30:46;;;;;;;;;;;15.20;99.90;;;;;;6279045;22;20207;-91
2021/08/30 09:33:56;;;;;;;;;;;15.30;99.90;;;;;;6278031;22;19923;-93
2021/08/30 09:36:47;;;;;;;;;;;15.50;99.90;;;;;;6274044;22;20008;-92
2021/08/30 09:39:57;;;;;;;;;;;15.50;99.90;;;;;;6280171;22;19943;-92
2021/08/30 09:42:50;;;;;;;;;;;15.70;99.90;;;;;;6263439;22;19967;-89
2021/08/30 09:46:04;;;;;;;;;;;15.70;99.90;;;;;;6294122;22;20318;-90
2021/08/30 09:48:56;;;;;;;;;;;15.70;99.90;;;;;;6288348;22;19919;-90
2021/08/30 09:52:15;;;;;;;;;;;15.80;99.90;;;;;;6267465;22;19995;-91
2021/08/30 10:02:48;;;;;;;;;;;15.90;99.90;;;;;;6287697;22;20229;-92
2021/08/30 10:06:08;;;;;;;;;;;15.80;99.90;;;;;;6311951;22;19923;-92
2021/08/30 10:09:10;;;;;;;;;;;16.20;99.90;;;;;;6309277;22;19954;-92
2021/08/30 10:12:18;;;;;;;;;;;16.40;99.90;;;;;;6277025;22;19930;-90
2021/08/30 10:15:18;;;;;;;;;;;;;;;;;;;;;
2021/08/30 10:18:31;;;;;;;;;;;16.40;99.90;;;;;;6319657;22;19930;-92
2021/08/30 10:22:02;;;;;;;;;;;16.30;99.90;;;;;;6320851;22;19919;-92
2021/08/30 10:25:14;;;;;;;;;;;16.00;99.90;;;;;;6321085;22;19906;-89
2021/08/30 10:28:15;;;;;;;;;;;15.70;99.90;;;;;;6324021;22;19997;-90
2021/08/30 10:31:36;;;;;;;;;;;15.40;99.90;;;;;;6324187;22;19922;-90
2021/08/30 10:34:50;;;;;;;;;;;15.30;99.90;;;;;;6311517;22;19919;-91
2021/08/30 10:37:49;;;;;;;;;;;15.20;99.90;;;;;;6319975;22;19964;-91
2021/08/30 10:40:57;;;;;;;;;;;15.10;99.90;;;;;;6289435;22;19919;-90
2021/08/30 10:43:46;;;;;;;;;;;15.00;99.90;;;;;;6311030;22;19933;-91
2021/08/30 10:46:56;;;;;;;;;;;15.10;99.90;;;;;;6290265;22;20020;-90
2021/08/30 10:49:45;;;;;;;;;;;15.40;99.90;;;;;;6294001;22;20311;-90
2021/08/30 10:52:42;;;;;;;;;;;15.60;99.90;;;;;;6296062;22;19940;-90
2021/08/30 10:55:50;;;;;;;;;;;;;;;;;;;;;
2021/08/30 10:58:50;;;;;;;;;;;16.20;99.90;;;;;;6322792;22;19994;-90
2021/08/30 11:01:39;;;;;;;;;;;16.30;99.90;;;;;;6289741;22;19919;-91
2021/08/30 11:04:32;;;;;;;;;;;16.60;99.90;;;;;;6316275;22;19923;-90
2021/08/30 11:07:33;;;;;;;;;;;;;;;;;;;;;
2021/08/30 11:10:24;;;;;;;;;;;16.90;99.90;;;;;;6312808;22;19919;-91
2021/08/30 11:13:34;;;;;;;;;;;16.70;99.90;;;;;;6315662;22;19933;-91
2021/08/30 11:16:26;;;;;;;;;;;16.60;99.90;;;;;;6318145;22;19971;-89
2021/08/30 11:19:16;;;;;;;;;;;16.40;99.90;;;;;;6322127;22;19930;-89
2021/08/30 11:22:06;;;;;;;;;;;16.70;99.90;;;;;;6299764;22;19922;-88
2021/08/30 11:25:14;;;;;;;;;;;17.00;99.90;;;;;;6324584;22;19929;-88
2021/08/30 11:28:18;;;;;;;;;;;16.90;99.90;;;;;;6325396;22;19919;-86
2021/08/30 11:31:05;;;;;;;;;;;16.70;99.90;;;;;;6292105;22;19923;-88
2021/08/30 11:34:21;;;;;;;;;;;16.70;99.90;;;;;;6284589;22;19918;-90
2021/08/30 11:37:09;;;;;;;;;;;16.40;99.90;;;;;;6288480;22;20214;-91
2021/08/30 11:39:59;;;;;;;;;;;16.30;99.90;;;;;;6287967;22;19945;-92
2021/08/30 11:42:48;;;;;;;;;;;16.20;99.90;;;;;;6312091;22;19963;-91
2021/08/30 11:45:39;;;;;;;;;;;16.20;99.90;;;;;;6289900;22;19919;-90
2021/08/30 11:48:29;;;;;;;;;;;16.00;99.90;;;;;;6312678;22;19949;-89
2021/08/30 11:51:22;;;;;;;;;;;15.90;99.90;;;;;;6314494;22;19927;-92
2021/08/30 11:54:12;;;;;;;;;;;16.10;99.90;;;;;;6316145;22;19926;-91
2021/08/30 11:57:06;;;;;;;;;;;16.50;99.90;;;;;;6314240;22;20238;-91
2021/08/30 12:00:00;;;;;;;;;;;17.00;99.90;;;;;;6314900;22;19933;-89
2021/08/30 12:02:55;;;;;;;;;;;17.40;99.90;;;;;;6301954;22;19909;-90
2021/08/30 12:05:48;;;;;;;;;;;17.70;99.90;;;;;;6320583;22;19919;-91
2021/08/30 12:08:52;;;;;;;;;;;17.90;99.90;;;;;;6321904;22;19926;-89
2021/08/30 12:11:49;;;;;;;;;;;17.90;99.90;;;;;;6323661;22;19923;-90
2021/08/30 12:14:48;;;;;;;;;;;17.70;99.90;;;;;;6273550;22;19948;-92
2021/08/30 12:17:37;;;;;;;;;;;17.50;99.90;;;;;;6294704;22;19919;-92
2021/08/30 12:20:36;;;;;;;;;;;17.60;99.90;;;;;;6296696;22;19991;-91
2021/08/30 12:23:29;;;;;;;;;;;17.60;99.90;;;;;;6318620;22;19937;-90
2021/08/30 12:26:23;;;;;;;;;;;17.60;99.90;;;;;;6319286;22;19919;-90
2021/08/30 12:29:12;;;;;;;;;;;17.50;99.90;;;;;;6274973;22;19938;-90
2021/08/30 12:31:59;;;;;;;;;;;17.60;99.90;;;;;;6287963;22;19927;-92
2021/08/30 12:34:46;;;;;;;;;;;18.10;99.90;;;;;;6309735;22;19919;-93
2021/08/30 12:37:33;;;;;;;;;;;18.70;99.90;;;;;;6311169;22;19930;-93
2021/08/30 12:40:24;;;;;;;;;;;19.20;99.90;;;;;;6307291;22;19949;-91
2021/08/30 12:43:11;;;;;;;;;;;19.30;99.90;;;;;;6310368;22;19926;-91
2021/08/30 12:46:01;;;;;;;;;;;19.30;99.90;;;;;;6271365;22;19919;-92
2021/08/30 12:48:49;;;;;;;;;;;19.00;99.90;;;;;;6318548;22;20277;-92
2021/08/30 12:51:37;;;;;;;;;;;18.60;99.90;;;;;;6318170;22;19929;-93
2021/08/30 12:54:29;;;;;;;;;;;18.40;99.90;;;;;;6293827;22;19919;-92
2021/08/30 12:57:16;;;;;;;;;;;18.30;99.90;;;;;;6293029;22;19930;-90
2021/08/30 13:00:11;;;;;;;;;;;18.10;99.90;;;;;;6315606;22;19978;-93
2021/08/30 13:02:59;;;;;;;;;;;17.70;99.90;;;;;;6318815;22;19911;-93
2021/08/30 13:05:47;;;;;;;;;;;17.30;99.90;;;;;;6291373;22;19993;-94
2021/08/30 13:08:38;;;;;;;;;;;16.80;99.90;;;;;;6290488;22;19919;-92
2021/08/30 13:11:25;;;;;;;;;;;16.30;99.90;;;;;;6311463;22;20020;-91
2021/08/30 13:14:12;;;;;;;;;;;15.80;99.90;;;;;;6310606;22;20198;-91
2021/08/30 13:16:59;;;;;;;;;;;15.60;99.90;;;;;;6311426;22;19923;-90
2021/08/30 13:19:47;;;;;;;;;;;15.30;99.90;;;;;;6312813;22;20058;-90
2021/08/30 13:22:35;;;;;;;;;;;15.10;99.90;;;;;;6310444;22;19923;-90
2021/08/30 13:25:28;;;;;;;;;;;15.00;99.90;;;;;;6313892;22;19950;-91
2021/08/30 13:54:37;;;;;;;;;;;15.80;99.90;;;;;;6016377;23;20103;-89
2021/08/30 13:57:58;;;;;;;;;;;15.90;99.90;;;;;;5967721;24;19961;-91
2021/08/30 14:00:47;;;;;;;;;;;15.90;99.90;;;;;;5923586;24;20030;-92
2021/08/30 14:03:33;;;;;;;;;;;16.10;99.90;;;;;;5879160;24;19912;-90
2021/08/30 14:07:25;;;;;;;;;;;;;;;;;;;;;
2021/08/30 14:10:22;;;;;;;;;;;16.40;99.90;;;;;;6098970;23;19932;-91
2021/08/30 14:17:10;;;;;;;;;;;17.00;99.90;;;;;;6156651;23;19935;-90
2021/08/30 14:20:24;;;;;;;;;;;17.70;99.90;;;;;;6280048;22;19946;-89
2021/08/30 14:23:26;;;;;;;;;;;17.80;99.90;;;;;;6307989;22;19919;-88
2021/08/30 14:26:17;;;;;;;;;;;17.10;99.90;;;;;;6288994;22;19919;-91
2021/08/30 14:29:19;;;;;;;;;;;;;;;;;;;;;
2021/08/30 14:32:27;;;;;;;;;;;15.90;99.90;;;;;;6307309;22;19929;-91
2021/08/30 14:35:19;;;;;;;;;;;15.50;99.90;;;;;;6308796;22;20242;-89
2021/08/30 14:38:07;;;;;;;;;;;15.20;99.90;;;;;;6308893;22;19927;-91
2021/08/30 14:40:59;;;;;;;;;;;15.00;99.90;;;;;;6289401;22;19923;-90
2021/08/30 14:43:49;;;;;;;;;;;14.90;99.90;;;;;;6289681;22;19995;-92
2021/08/30 14:46:55;;;;;;;;;;;14.90;99.90;;;;;;6288876;22;19941;-91
2021/08/30 14:49:49;;;;;;;;;;;15.00;99.90;;;;;;6289242;22;19919;-90
2021/08/30 14:52:39;;;;;;;;;;;15.10;99.90;;;;;;6292278;22;19919;-85
2021/08/30 14:55:27;;;;;;;;;;;15.40;99.90;;;;;;6318747;22;20017;-88
2021/08/30 14:58:17;;;;;;;;;;;15.50;99.90;;;;;;6317227;22;19972;-89
2021/08/30 15:01:06;;;;;;;;;;;15.60;99.90;;;;;;6291614;22;20181;-87
2021/08/30 15:04:15;;;;;;;;;;;15.50;99.90;;;;;;6299944;22;19972;-90
2021/08/30 15:07:05;;;;;;;;;;;15.40;99.90;;;;;;6300275;22;19992;-89
2021/08/30 15:13:27;;;;;;;;;;;15.30;99.90;;;;;;6316371;22;19918;-88
2021/08/30 15:16:26;;;;;;;;;;;15.10;99.90;;;;;;6299187;22;19919;-90
2021/08/30 20:33:12;;;;;;;;;;;13.80;99.90;;;;;;6274520;22;20652;-90
2021/08/30 20:36:00;;;;;;;;;;;13.80;99.90;;;;;;6240001;22;19931;-89
2021/08/30 20:38:57;;;;;;;;;;;13.70;99.90;;;;;;6278267;22;19920;-92
2021/08/30 20:41:44;;;;;;;;;;;13.70;99.90;;;;;;6259205;22;20037;-91
2021/08/30 20:44:31;;;;;;;;;;;13.70;99.90;;;;;;6258141;22;19930;-89
2021/08/30 20:47:21;;;;;;;;;;;13.70;99.90;;;;;;6278285;22;19946;-89
2021/08/30 20:50:10;;;;;;;;;;;13.70;99.90;;;;;;6281145;22;19935;-90
2021/08/30 20:52:58;;;;;;;;;;;13.60;99.90;;;;;;6239632;22;20007;-90
2021/08/30 20:55:45;;;;;;;;;;;13.70;99.90;;;;;;6278834;22;19923;-89
2021/08/30 20:58:33;;;;;;;;;;;13.70;99.90;;;;;;6277888;22;19930;-88
2021/08/30 21:01:23;;;;;;;;;;;13.70;99.90;;;;;;6278984;22;19930;-90
2021/08/30 21:04:10;;;;;;;;;;;13.70;99.90;;;;;;6256782;22;19930;-88
2021/08/30 21:06:57;;;;;;;;;;;13.60;99.90;;;;;;6255650;22;19950;-90
2021/08/30 21:09:45;;;;;;;;;;;13.60;99.90;;;;;;6254636;22;19993;-90
2021/08/30 21:12:52;;;;;;;;;;;13.60;99.90;;;;;;6256174;22;20025;-92
2021/08/30 21:15:39;;;;;;;;;;;13.60;99.90;;;;;;6256517;22;19946;-90
2021/08/30 21:18:27;;;;;;;;;;;13.60;99.90;;;;;;6277265;22;19930;-90
2021/08/30 21:21:17;;;;;;;;;;;13.50;99.90;;;;;;6257018;22;19919;-91
2021/08/30 21:24:06;;;;;;;;;;;13.50;99.90;;;;;;6278259;22;19927;-91
2021/08/30 21:26:53;;;;;;;;;;;13.50;99.90;;;;;;6275380;22;19923;-91
2021/08/30 21:29:44;;;;;;;;;;;13.50;99.90;;;;;;6276505;22;19919;-92
2021/08/30 21:32:32;;;;;;;;;;;13.50;99.90;;;;;;6277917;22;19927;-91
2021/08/30 21:35:21;;;;;;;;;;;13.50;99.90;;;;;;6255340;22;20029;-91
2021/08/30 21:38:15;;;;;;;;;;;13.40;99.90;;;;;;6277764;22;19919;-91
2021/08/30 21:41:02;;;;;;;;;;;13.40;99.90;;;;;;6255791;22;20018;-92
2021/08/30 21:43:50;;;;;;;;;;;13.40;99.90;;;;;;6275581;22;19934;-91
2021/08/30 21:46:37;;;;;;;;;;;13.40;99.90;;;;;;6276320;22;19968;-89
2021/08/30 21:49:27;;;;;;;;;;;13.40;99.90;;;;;;6275962;22;19926;-91
2021/08/30 21:52:16;;;;;;;;;;;13.40;99.90;;;;;;6275874;22;19930;-90
2021/08/30 21:55:04;;;;;;;;;;;13.40;99.90;;;;;;6276150;22;19934;-90
2021/08/30 21:58:01;;;;;;;;;;;13.40;99.90;;;;;;6253871;22;19926;-91
2021/08/30 22:00:52;;;;;;;;;;;13.50;99.90;;;;;;6255804;22;19923;-91
2021/08/30 22:03:40;;;;;;;;;;;13.40;99.90;;;;;;6277545;22;19919;-90
2021/08/30 22:06:28;;;;;;;;;;;13.40;99.90;;;;;;6257345;22;19919;-90
2021/08/30 22:09:15;;;;;;;;;;;13.40;99.90;;;;;;6278710;22;19923;-90
2021/08/30 22:12:03;;;;;;;;;;;13.40;99.90;;;;;;6278828;22;19927;-91
2021/08/30 22:14:50;;;;;;;;;;;13.30;99.90;;;;;;6279311;22;20295;-89
2021/08/30 22:17:37;;;;;;;;;;;13.30;99.90;;;;;;6279040;22;19950;-90
2021/08/30 22:20:27;;;;;;;;;;;13.30;99.90;;;;;;6280098;22;19919;-89
2021/08/30 22:23:14;;;;;;;;;;;13.30;99.90;;;;;;6257610;22;20302;-88
2021/08/30 22:26:05;;;;;;;;;;;13.40;99.90;;;;;;6278393;22;19923;-89
2021/08/30 22:28:55;;;;;;;;;;;13.40;99.90;;;;;;6276961;22;19923;-90
2021/08/30 22:31:42;;;;;;;;;;;13.40;99.90;;;;;;6278027;22;19919;-92
2021/08/30 22:34:30;;;;;;;;;;;13.40;99.90;;;;;;6278797;22;20345;-91
2021/08/30 22:37:17;;;;;;;;;;;13.40;99.90;;;;;;6256945;22;19927;-90
2021/08/30 22:40:05;;;;;;;;;;;13.40;99.90;;;;;;6258616;22;19919;-92
2021/08/30 22:42:52;;;;;;;;;;;13.40;99.90;;;;;;6259285;22;19935;-91
2021/08/30 22:45:40;;;;;;;;;;;13.40;99.90;;;;;;6279005;22;19946;-90
2021/08/30 22:48:27;;;;;;;;;;;13.50;99.90;;;;;;6282162;22;19938;-90
2021/08/30 22:51:17;;;;;;;;;;;13.50;99.90;;;;;;6239396;22;19919;-89
2021/08/30 22:54:05;;;;;;;;;;;13.50;99.90;;;;;;6258526;22;19919;-90
2021/08/30 22:56:53;;;;;;;;;;;13.40;99.90;;;;;;6277468;22;19946;-91
2021/08/30 22:59:40;;;;;;;;;;;13.40;99.90;;;;;;6254566;22;20077;-90
2021/08/30 23:02:29;;;;;;;;;;;13.40;99.90;;;;;;6278080;22;19923;-92
2021/08/30 23:05:17;;;;;;;;;;;13.40;99.90;;;;;;6254413;22;20325;-90
2021/08/30 23:08:05;;;;;;;;;;;13.40;99.90;;;;;;6279534;22;19919;-90
2021/08/30 23:10:53;;;;;;;;;;;13.30;99.90;;;;;;6255276;22;19934;-91
2021/08/30 23:13:40;;;;;;;;;;;13.30;99.90;;;;;;6254420;22;19939;-91
2021/08/30 23:16:27;;;;;;;;;;;13.20;99.90;;;;;;6254549;22;19938;-92
2021/08/30 23:19:17;;;;;;;;;;;13.30;99.90;;;;;;6257876;22;20215;-91
2021/08/30 23:22:04;;;;;;;;;;;13.30;99.90;;;;;;6277494;22;19951;-91
2021/08/30 23:24:51;;;;;;;;;;;13.30;99.90;;;;;;6276960;22;19990;-91
2021/08/30 23:27:38;;;;;;;;;;;13.30;99.90;;;;;;6276508;22;19923;-89
2021/08/30 23:30:25;;;;;;;;;;;13.30;99.90;;;;;;6256905;22;19919;-90
2021/08/30 23:33:15;;;;;;;;;;;13.30;99.90;;;;;;6277805;22;19981;-88
2021/08/30 23:36:02;;;;;;;;;;;13.30;99.90;;;;;;6237844;22;20012;-89
2021/08/30 23:38:50;;;;;;;;;;;13.30;99.90;;;;;;6286635;22;19929;-91
2021/08/30 23:41:37;;;;;;;;;;;13.30;99.90;;;;;;6287802;22;19978;-91
2021/08/30 23:44:27;;;;;;;;;;;13.20;99.90;;;;;;6267225;22;19923;-92
2021/08/30 23:47:14;;;;;;;;;;;13.20;99.90;;;;;;6292708;22;19934;-88
2021/08/30 23:50:04;;;;;;;;;;;13.20;99.90;;;;;;6283435;22;19920;-90
2021/08/30 23:52:51;;;;;;;;;;;13.20;99.90;;;;;;6258528;22;19923;-89
2021/08/30 23:55:40;;;;;;;;;;;13.20;99.90;;;;;;6278495;22;19968;-90
2021/08/30 23:58:27;;;;;;;;;;;13.20;99.90;;;;;;6277846;22;20302;-91
